Flight Track Log - Related Links

Times and Time Zones

All times are in EDT time to prevent confusion due to time zone crossing. See the BER7688 flight status page for this flight to view local times or setup timezone preferences in your user account.

Time Position Orientation Groundspeed Altitude Reporting Facility
EDT Latitude Longitude Course Direction KTS MPH feet Rate Location/Type
Tue 09:17:00 AM 40.3351 1.2124 304° West  Level Estimated
Tue 09:18:00 AM 40.3946 1.0935 303° West  Level Estimated
Tue 09:19:00 AM 40.4539 0.9744 303° West  Level Estimated
Tue 09:20:00 AM 40.5131 0.8551 303° West  Level Estimated
Tue 09:21:00 AM 40.5721 0.7356 303° West  Level Estimated
Tue 09:22:00 AM 40.6311 0.6159 303° West  Level Estimated
Tue 09:23:00 AM 40.6899 0.4960 303° West  Level Estimated
Tue 09:24:00 AM 40.7486 0.3758 303° West  Level Estimated
Tue 09:25:00 AM 40.8071 0.2555 303° West  Level Estimated
Tue 09:26:00 AM 40.8656 0.1349 303° West  Level Estimated
Tue 09:27:00 AM 40.9239 0.0141 303° West  Level Estimated
Tue 09:28:00 AM 40.9821 -0.1068 303° West  Level Estimated
Tue 09:29:00 AM 41.0401 -0.2280 302° West  Level Estimated
Tue 09:30:00 AM 41.0981 -0.3495 302° West  Level Estimated
Tue 09:31:00 AM 41.1559 -0.4711 302° West  Level Estimated
Tue 09:32:00 AM 41.2136 -0.5929 302° West  Level Estimated
Tue 09:33:00 AM 41.2711 -0.7150 302° West  Level Estimated
Tue 09:34:00 AM 41.3285 -0.8373 302° West  Level Estimated
Tue 09:35:00 AM 41.3858 -0.9598 302° West  Level Estimated
Tue 09:36:00 AM 41.4430 -1.0825 302° West  Level Estimated
Tue 09:37:00 AM 41.5000 -1.2054 302° West  Level Estimated
Tue 09:38:00 AM 41.5569 -1.3285 302° West  Level Estimated
Tue 09:39:00 AM 41.6137 -1.4519 302° West  Level Estimated
Tue 09:40:00 AM 41.6703 -1.5755 302° West  Level Estimated
Tue 09:41:00 AM 41.7268 -1.6992 301° West  Level Estimated
Tue 09:42:00 AM 41.7832 -1.8233 301° West  Level Estimated
Tue 09:43:00 AM 41.8394 -1.9475 301° West  Level Estimated
Tue 09:44:00 AM 41.8955 -2.0719 301° West  Level Estimated
Tue 09:45:00 AM 41.9515 -2.1966 301° West  Level Estimated
Tue 09:46:00 AM 42.0073 -2.3215 301° West  Level Estimated
Tue 09:47:00 AM 42.0630 -2.4466 301° West  Level Estimated
Tue 09:48:00 AM 42.1186 -2.5719 301° West  Level Estimated
Tue 09:49:00 AM 42.1740 -2.6974 301° West  Level Estimated
Tue 09:50:00 AM 42.2293 -2.8232 301° West  Level Estimated
Tue 09:51:00 AM 42.2844 -2.9492 301° West  Level Estimated
Tue 09:52:00 AM 42.3395 -3.0754 301° West  Level Estimated
Tue 09:53:00 AM 42.3943 -3.2018 300° West  Level Estimated
Tue 09:54:00 AM 42.4491 -3.3284 300° West  Level Estimated
Tue 09:55:00 AM 42.5036 -3.4553 300° West  Level Estimated
Tue 09:56:00 AM 42.5581 -3.5824 300° West  Level Estimated
Tue 09:57:00 AM 42.6124 -3.7097 300° West  Level Estimated
Tue 09:58:00 AM 42.6666 -3.8372 300° West  Level Estimated
Tue 09:59:00 AM 42.7206 -3.9650 300° West  Level Estimated
Tue 10:00:00 AM 42.7745 -4.0929 300° West  Level Estimated
Tue 10:01:00 AM 42.8282 -4.2211 300° West  Level Estimated
Tue 10:02:00 AM 42.8818 -4.3495 300° West  Level Estimated
Tue 10:03:00 AM 42.9353 -4.4782 300° West  Level Estimated
Tue 10:04:00 AM 42.9886 -4.6070 300° West  Level Estimated
Tue 10:05:00 AM 43.0418 -4.7361 299° West  Level Estimated
Tue 10:06:00 AM 43.0948 -4.8654 299° West  Level Estimated
Tue 10:07:00 AM 43.1477 -4.9950 299° West  Level Estimated
Tue 10:08:00 AM 43.2004 -5.1247 299° West  Level Estimated
Tue 10:09:00 AM 43.2530 -5.2547 299° West  Level Estimated
Tue 10:10:00 AM 43.3055 -5.3849 299° West  Level Estimated
Tue 10:11:00 AM 43.3577 -5.5153 299° West  Level Estimated
Tue 10:12:00 AM 43.4099 -5.6460 299° West  Level Estimated
Tue 10:13:00 AM 43.4619 -5.7769 299° West  Level Estimated
Tue 10:14:00 AM 43.5137 -5.9080 299° West  Level Estimated
Tue 10:15:00 AM 43.5636 -6.0346 299° West  Level Estimated
Tue 10:16:00 AM 43.5636 -6.0346 206° Southwest  Level Estimated
Tue 10:17:00 AM 43.5636 -6.0346 206° Southwest  Level Estimated
Tue 10:18:00 AM 43.5636 -6.0346 206° Southwest  Level Estimated
Tue 10:19:00 AM 43.5636 -6.0346 206° Southwest  Level Estimated
Tue 10:20:00 AM 43.5636 -6.0346 206° Southwest  Level Estimated
Tue 10:21:00 AM 43.5636 -6.0346 206° Southwest  Level Estimated
Tue 10:22:00 AM 43.5636 -6.0346 206° Southwest  Level Estimated
Tue 10:23:00 AM 43.5636 -6.0346 206° Southwest  Level Estimated
Tue 10:24:00 AM 43.5636 -6.0346 206° Southwest  Level Estimated
Tue 10:25:00 AM 43.5636 -6.0346 206° Southwest  Level Estimated
Tue 10:26:00 AM 43.5636 -6.0346 206° Southwest  Level Estimated
Tue 10:27:00 AM 43.5636 -6.0346 206° Southwest  Level Estimated
Tue 10:28:00 AM 43.5636 -6.0346 206° Southwest  Level Estimated
Tue 10:29:00 AM 43.5636 -6.0346 206° Southwest  Level Estimated
Tue 10:30:00 AM 43.5636 -6.0346 206° Southwest  Level Estimated
Tue 10:31:00 AM 43.5636 -6.0346 206° Southwest  Level Estimated

Login

Don't have an account? Register now (free) for customized features, flight alerts, and more!